sensor_id;sensor_type;location;lat;lon;timestamp;temperature;humidity
45983;DHT22;31711;47.158;7.346;2022-08-21T00:01:52;17.50;99.90
45983;DHT22;31711;47.158;7.346;2022-08-21T00:04:18;17.50;99.90
45983;DHT22;31711;47.158;7.346;2022-08-21T00:06:44;17.50;99.90
45983;DHT22;31711;47.158;7.346;2022-08-21T00:09:10;17.50;99.90
45983;DHT22;31711;47.158;7.346;2022-08-21T00:11:38;17.50;99.90
45983;DHT22;31711;47.158;7.346;2022-08-21T00:14:06;17.50;99.90
45983;DHT22;31711;47.158;7.346;2022-08-21T00:16:33;17.50;99.90
45983;DHT22;31711;47.158;7.346;2022-08-21T00:18:59;17.50;99.90
45983;DHT22;31711;47.158;7.346;2022-08-21T00:21:25;17.40;99.90
45983;DHT22;31711;47.158;7.346;2022-08-21T00:23:51;17.40;99.90
45983;DHT22;31711;47.158;7.346;2022-08-21T00:26:17;17.40;99.90
45983;DHT22;31711;47.158;7.346;2022-08-21T00:28:43;17.40;99.90
45983;DHT22;31711;47.158;7.346;2022-08-21T00:31:11;17.50;99.90
45983;DHT22;31711;47.158;7.346;2022-08-21T00:33:38;17.50;99.90
45983;DHT22;31711;47.158;7.346;2022-08-21T00:36:04;17.50;99.90
45983;DHT22;31711;47.158;7.346;2022-08-21T00:38:30;17.50;99.90
45983;DHT22;31711;47.158;7.346;2022-08-21T00:41:00;17.50;99.90
45983;DHT22;31711;47.158;7.346;2022-08-21T00:43:29;17.60;99.90
45983;DHT22;31711;47.158;7.346;2022-08-21T00:45:56;17.60;99.90
45983;DHT22;31711;47.158;7.346;2022-08-21T00:48:23;17.60;99.90
45983;DHT22;31711;47.158;7.346;2022-08-21T00:51:05;17.70;99.90
45983;DHT22;31711;47.158;7.346;2022-08-21T00:53:33;17.60;99.90
45983;DHT22;31711;47.158;7.346;2022-08-21T00:56:01;17.50;99.90
45983;DHT22;31711;47.158;7.346;2022-08-21T00:58:29;17.50;99.90
45983;DHT22;31711;47.158;7.346;2022-08-21T01:00:57;17.50;99.90
45983;DHT22;31711;47.158;7.346;2022-08-21T01:03:25;17.50;99.90
45983;DHT22;31711;47.158;7.346;2022-08-21T01:05:52;17.50;99.90
45983;DHT22;31711;47.158;7.346;2022-08-21T01:08:19;17.40;99.90
45983;DHT22;31711;47.158;7.346;2022-08-21T01:10:46;17.40;99.90
45983;DHT22;31711;47.158;7.346;2022-08-21T01:13:16;17.30;99.90
45983;DHT22;31711;47.158;7.346;2022-08-21T01:15:45;17.30;99.90
45983;DHT22;31711;47.158;7.346;2022-08-21T01:18:13;17.20;99.90
45983;DHT22;31711;47.158;7.346;2022-08-21T01:23:11;17.10;99.90
45983;DHT22;31711;47.158;7.346;2022-08-21T01:25:38;17.00;99.90
45983;DHT22;31711;47.158;7.346;2022-08-21T01:28:12;17.00;99.90
45983;DHT22;31711;47.158;7.346;2022-08-21T01:30:39;17.00;99.90
45983;DHT22;31711;47.158;7.346;2022-08-21T01:33:05;17.00;99.90
45983;DHT22;31711;47.158;7.346;2022-08-21T01:35:31;16.90;99.90
45983;DHT22;31711;47.158;7.346;2022-08-21T01:37:57;16.80;99.90
45983;DHT22;31711;47.158;7.346;2022-08-21T01:40:23;16.80;99.90
45983;DHT22;31711;47.158;7.346;2022-08-21T01:42:49;16.80;99.90
45983;DHT22;31711;47.158;7.346;2022-08-21T01:45:15;16.80;99.90
45983;DHT22;31711;47.158;7.346;2022-08-21T01:47:43;16.80;99.90
45983;DHT22;31711;47.158;7.346;2022-08-21T01:50:12;16.70;99.90
45983;DHT22;31711;47.158;7.346;2022-08-21T01:52:39;16.60;99.90
45983;DHT22;31711;47.158;7.346;2022-08-21T01:55:06;16.50;99.90
45983;DHT22;31711;47.158;7.346;2022-08-21T01:57:32;16.40;99.90
45983;DHT22;31711;47.158;7.346;2022-08-21T01:59:58;16.50;99.90
45983;DHT22;31711;47.158;7.346;2022-08-21T02:02:24;16.40;99.90
45983;DHT22;31711;47.158;7.346;2022-08-21T02:04:50;16.40;99.90
45983;DHT22;31711;47.158;7.346;2022-08-21T02:07:16;16.40;99.90
45983;DHT22;31711;47.158;7.346;2022-08-21T02:09:42;16.30;99.90
45983;DHT22;31711;47.158;7.346;2022-08-21T02:12:10;16.20;99.90
45983;DHT22;31711;47.158;7.346;2022-08-21T02:14:36;16.20;99.90
45983;DHT22;31711;47.158;7.346;2022-08-21T02:17:03;16.20;99.90
45983;DHT22;31711;47.158;7.346;2022-08-21T02:19:29;16.20;99.90
45983;DHT22;31711;47.158;7.346;2022-08-21T02:21:55;16.20;99.90
45983;DHT22;31711;47.158;7.346;2022-08-21T02:24:21;16.20;99.90
45983;DHT22;31711;47.158;7.346;2022-08-21T02:26:46;16.20;99.90
45983;DHT22;31711;47.158;7.346;2022-08-21T02:29:13;16.10;99.90
45983;DHT22;31711;47.158;7.346;2022-08-21T02:31:39;16.10;99.90
45983;DHT22;31711;47.158;7.346;2022-08-21T02:34:04;16.10;99.90
45983;DHT22;31711;47.158;7.346;2022-08-21T02:36:31;16.10;99.90
45983;DHT22;31711;47.158;7.346;2022-08-21T02:38:57;16.10;99.90
45983;DHT22;31711;47.158;7.346;2022-08-21T02:41:23;16.10;99.90
45983;DHT22;31711;47.158;7.346;2022-08-21T02:43:49;16.00;99.90
45983;DHT22;31711;47.158;7.346;2022-08-21T02:46:17;16.00;99.90
45983;DHT22;31711;47.158;7.346;2022-08-21T02:48:44;15.90;99.90
45983;DHT22;31711;47.158;7.346;2022-08-21T02:51:13;16.00;99.90
45983;DHT22;31711;47.158;7.346;2022-08-21T02:53:40;15.90;99.90
45983;DHT22;31711;47.158;7.346;2022-08-21T02:56:08;15.90;99.90
45983;DHT22;31711;47.158;7.346;2022-08-21T02:58:38;15.90;99.90
45983;DHT22;31711;47.158;7.346;2022-08-21T03:01:06;15.90;99.90
45983;DHT22;31711;47.158;7.346;2022-08-21T03:03:39;15.90;99.90
45983;DHT22;31711;47.158;7.346;2022-08-21T03:06:06;15.90;99.90
45983;DHT22;31711;47.158;7.346;2022-08-21T03:08:34;15.90;99.90
45983;DHT22;31711;47.158;7.346;2022-08-21T03:11:00;15.90;99.90
45983;DHT22;31711;47.158;7.346;2022-08-21T03:13:27;16.00;99.90
45983;DHT22;31711;47.158;7.346;2022-08-21T03:15:53;16.10;99.90
45983;DHT22;31711;47.158;7.346;2022-08-21T03:18:20;16.20;99.90
45983;DHT22;31711;47.158;7.346;2022-08-21T03:20:47;16.20;99.90
45983;DHT22;31711;47.158;7.346;2022-08-21T03:23:14;16.30;99.90
45983;DHT22;31711;47.158;7.346;2022-08-21T03:25:41;16.40;99.90
45983;DHT22;31711;47.158;7.346;2022-08-21T03:28:10;16.40;99.90
45983;DHT22;31711;47.158;7.346;2022-08-21T03:30:36;16.40;99.90
45983;DHT22;31711;47.158;7.346;2022-08-21T03:33:02;16.50;99.90
45983;DHT22;31711;47.158;7.346;2022-08-21T03:35:29;16.40;99.90
45983;DHT22;31711;47.158;7.346;2022-08-21T03:37:55;16.40;99.90
45983;DHT22;31711;47.158;7.346;2022-08-21T03:40:24;16.50;99.90
45983;DHT22;31711;47.158;7.346;2022-08-21T03:42:50;16.40;99.90
45983;DHT22;31711;47.158;7.346;2022-08-21T03:45:17;16.30;99.90
45983;DHT22;31711;47.158;7.346;2022-08-21T03:47:57;16.30;99.90
45983;DHT22;31711;47.158;7.346;2022-08-21T03:50:24;16.20;99.90
45983;DHT22;31711;47.158;7.346;2022-08-21T03:52:51;16.10;99.90
45983;DHT22;31711;47.158;7.346;2022-08-21T03:55:18;16.10;99.90
45983;DHT22;31711;47.158;7.346;2022-08-21T03:57:44;16.10;99.90
45983;DHT22;31711;47.158;7.346;2022-08-21T04:00:11;16.10;99.90
45983;DHT22;31711;47.158;7.346;2022-08-21T04:02:39;16.10;99.90
45983;DHT22;31711;47.158;7.346;2022-08-21T04:05:06;16.10;99.90
45983;DHT22;31711;47.158;7.346;2022-08-21T04:07:32;16.10;99.90
45983;DHT22;31711;47.158;7.346;2022-08-21T04:09:58;16.10;99.90
45983;DHT22;31711;47.158;7.346;2022-08-21T04:12:24;16.10;99.90
45983;DHT22;31711;47.158;7.346;2022-08-21T04:14:50;16.10;99.90
45983;DHT22;31711;47.158;7.346;2022-08-21T04:17:19;16.10;99.90
45983;DHT22;31711;47.158;7.346;2022-08-21T04:19:45;16.20;99.90
45983;DHT22;31711;47.158;7.346;2022-08-21T04:22:11;16.30;99.90
45983;DHT22;31711;47.158;7.346;2022-08-21T04:24:37;16.20;99.90
45983;DHT22;31711;47.158;7.346;2022-08-21T04:27:03;16.10;99.90
45983;DHT22;31711;47.158;7.346;2022-08-21T04:29:29;16.10;99.90
45983;DHT22;31711;47.158;7.346;2022-08-21T04:31:55;16.10;99.90
45983;DHT22;31711;47.158;7.346;2022-08-21T04:34:21;16.00;99.90
45983;DHT22;31711;47.158;7.346;2022-08-21T04:36:46;16.00;99.90
45983;DHT22;31711;47.158;7.346;2022-08-21T04:39:12;16.00;99.90
45983;DHT22;31711;47.158;7.346;2022-08-21T04:41:38;15.90;99.90
45983;DHT22;31711;47.158;7.346;2022-08-21T04:44:05;15.80;99.90
45983;DHT22;31711;47.158;7.346;2022-08-21T04:46:32;15.80;99.90
45983;DHT22;31711;47.158;7.346;2022-08-21T04:48:58;15.70;99.90
45983;DHT22;31711;47.158;7.346;2022-08-21T04:51:27;15.70;99.90
45983;DHT22;31711;47.158;7.346;2022-08-21T04:54:07;15.60;99.90
45983;DHT22;31711;47.158;7.346;2022-08-21T04:56:42;15.60;99.90
45983;DHT22;31711;47.158;7.346;2022-08-21T04:59:14;15.60;99.90
45983;DHT22;31711;47.158;7.346;2022-08-21T05:01:42;15.60;99.90
45983;DHT22;31711;47.158;7.346;2022-08-21T05:04:11;15.60;99.90
45983;DHT22;31711;47.158;7.346;2022-08-21T05:06:39;15.60;99.90
45983;DHT22;31711;47.158;7.346;2022-08-21T05:09:08;15.60;99.90
45983;DHT22;31711;47.158;7.346;2022-08-21T05:11:35;15.70;99.90
45983;DHT22;31711;47.158;7.346;2022-08-21T05:14:03;15.80;99.90
45983;DHT22;31711;47.158;7.346;2022-08-21T05:16:29;15.80;99.90
45983;DHT22;31711;47.158;7.346;2022-08-21T05:18:56;15.80;99.90
45983;DHT22;31711;47.158;7.346;2022-08-21T05:21:22;15.90;99.90
45983;DHT22;31711;47.158;7.346;2022-08-21T05:23:48;15.90;99.90
45983;DHT22;31711;47.158;7.346;2022-08-21T05:26:13;15.90;99.90
45983;DHT22;31711;47.158;7.346;2022-08-21T05:28:39;15.90;99.90
45983;DHT22;31711;47.158;7.346;2022-08-21T05:31:05;16.00;99.90
45983;DHT22;31711;47.158;7.346;2022-08-21T05:33:31;16.10;99.90
45983;DHT22;31711;47.158;7.346;2022-08-21T05:35:57;16.10;99.90
45983;DHT22;31711;47.158;7.346;2022-08-21T05:38:24;16.10;99.90
45983;DHT22;31711;47.158;7.346;2022-08-21T05:40:53;16.10;99.90
45983;DHT22;31711;47.158;7.346;2022-08-21T05:43:19;16.30;99.90
45983;DHT22;31711;47.158;7.346;2022-08-21T05:45:45;16.30;99.90
45983;DHT22;31711;47.158;7.346;2022-08-21T05:48:19;16.40;99.90
45983;DHT22;31711;47.158;7.346;2022-08-21T05:50:46;16.60;99.90
45983;DHT22;31711;47.158;7.346;2022-08-21T05:53:13;16.60;99.90
45983;DHT22;31711;47.158;7.346;2022-08-21T05:55:40;16.80;99.90
45983;DHT22;31711;47.158;7.346;2022-08-21T05:58:06;16.80;99.90
45983;DHT22;31711;47.158;7.346;2022-08-21T06:00:32;17.00;99.90
45983;DHT22;31711;47.158;7.346;2022-08-21T06:02:59;17.10;99.90
45983;DHT22;31711;47.158;7.346;2022-08-21T06:05:25;17.20;99.90
45983;DHT22;31711;47.158;7.346;2022-08-21T06:07:52;17.40;99.90
45983;DHT22;31711;47.158;7.346;2022-08-21T06:10:18;17.50;99.90
45983;DHT22;31711;47.158;7.346;2022-08-21T06:12:44;17.60;99.90
45983;DHT22;31711;47.158;7.346;2022-08-21T06:15:10;17.60;99.90
45983;DHT22;31711;47.158;7.346;2022-08-21T06:17:37;17.50;99.90
45983;DHT22;31711;47.158;7.346;2022-08-21T06:20:03;17.40;99.90
45983;DHT22;31711;47.158;7.346;2022-08-21T06:22:30;17.30;99.90
45983;DHT22;31711;47.158;7.346;2022-08-21T06:24:56;17.40;99.90
45983;DHT22;31711;47.158;7.346;2022-08-21T06:27:22;17.30;99.90
45983;DHT22;31711;47.158;7.346;2022-08-21T06:29:48;17.30;99.90
45983;DHT22;31711;47.158;7.346;2022-08-21T06:32:15;17.40;99.90
45983;DHT22;31711;47.158;7.346;2022-08-21T06:34:41;17.50;99.90
45983;DHT22;31711;47.158;7.346;2022-08-21T06:37:08;17.60;99.90
45983;DHT22;31711;47.158;7.346;2022-08-21T06:39:34;17.60;99.90
45983;DHT22;31711;47.158;7.346;2022-08-21T06:42:00;17.70;99.90
45983;DHT22;31711;47.158;7.346;2022-08-21T06:44:26;17.80;99.90
45983;DHT22;31711;47.158;7.346;2022-08-21T06:46:52;17.80;99.90
45983;DHT22;31711;47.158;7.346;2022-08-21T06:49:18;18.00;99.90
45983;DHT22;31711;47.158;7.346;2022-08-21T06:51:44;17.90;99.90
45983;DHT22;31711;47.158;7.346;2022-08-21T06:54:10;18.00;99.90
45983;DHT22;31711;47.158;7.346;2022-08-21T06:56:36;18.00;99.90
45983;DHT22;31711;47.158;7.346;2022-08-21T06:59:04;18.10;99.90
45983;DHT22;31711;47.158;7.346;2022-08-21T07:01:31;18.20;99.90
45983;DHT22;31711;47.158;7.346;2022-08-21T07:03:58;18.20;99.90
45983;DHT22;31711;47.158;7.346;2022-08-21T07:06:24;18.30;99.90
45983;DHT22;31711;47.158;7.346;2022-08-21T07:08:50;18.40;99.90
45983;DHT22;31711;47.158;7.346;2022-08-21T07:11:21;18.40;99.90
45983;DHT22;31711;47.158;7.346;2022-08-21T07:13:48;18.40;99.90
45983;DHT22;31711;47.158;7.346;2022-08-21T07:16:14;18.50;99.90
45983;DHT22;31711;47.158;7.346;2022-08-21T07:18:40;18.50;99.90
45983;DHT22;31711;47.158;7.346;2022-08-21T07:21:07;18.50;99.90
45983;DHT22;31711;47.158;7.346;2022-08-21T07:23:37;18.50;99.90
45983;DHT22;31711;47.158;7.346;2022-08-21T07:26:04;18.30;99.90
45983;DHT22;31711;47.158;7.346;2022-08-21T07:28:30;18.30;99.90
45983;DHT22;31711;47.158;7.346;2022-08-21T07:30:57;18.30;99.90
45983;DHT22;31711;47.158;7.346;2022-08-21T07:33:24;18.40;99.90
45983;DHT22;31711;47.158;7.346;2022-08-21T07:35:52;18.30;99.90
45983;DHT22;31711;47.158;7.346;2022-08-21T07:38:18;18.50;99.90
45983;DHT22;31711;47.158;7.346;2022-08-21T07:40:45;18.50;99.90
45983;DHT22;31711;47.158;7.346;2022-08-21T07:43:12;18.60;99.90
45983;DHT22;31711;47.158;7.346;2022-08-21T07:45:38;18.70;99.90
45983;DHT22;31711;47.158;7.346;2022-08-21T07:48:04;18.90;99.90
45983;DHT22;31711;47.158;7.346;2022-08-21T07:50:30;18.80;99.90
45983;DHT22;31711;47.158;7.346;2022-08-21T07:52:56;18.90;99.90
45983;DHT22;31711;47.158;7.346;2022-08-21T07:55:23;18.90;99.90
45983;DHT22;31711;47.158;7.346;2022-08-21T07:57:49;18.90;99.90
45983;DHT22;31711;47.158;7.346;2022-08-21T08:00:18;18.90;99.90
45983;DHT22;31711;47.158;7.346;2022-08-21T08:02:47;19.00;99.90
45983;DHT22;31711;47.158;7.346;2022-08-21T08:05:16;19.20;99.90
45983;DHT22;31711;47.158;7.346;2022-08-21T08:07:42;19.10;99.90
45983;DHT22;31711;47.158;7.346;2022-08-21T08:10:09;19.30;99.90
45983;DHT22;31711;47.158;7.346;2022-08-21T08:12:37;19.30;99.90
45983;DHT22;31711;47.158;7.346;2022-08-21T08:15:04;19.40;99.90
45983;DHT22;31711;47.158;7.346;2022-08-21T08:17:31;19.60;99.90
45983;DHT22;31711;47.158;7.346;2022-08-21T08:19:58;19.80;99.90
45983;DHT22;31711;47.158;7.346;2022-08-21T08:22:26;20.10;99.90
45983;DHT22;31711;47.158;7.346;2022-08-21T08:24:53;20.00;99.90
45983;DHT22;31711;47.158;7.346;2022-08-21T08:27:20;20.00;99.90
45983;DHT22;31711;47.158;7.346;2022-08-21T08:29:46;19.90;99.90
45983;DHT22;31711;47.158;7.346;2022-08-21T08:32:12;20.00;99.90
45983;DHT22;31711;47.158;7.346;2022-08-21T08:34:39;20.00;99.90
45983;DHT22;31711;47.158;7.346;2022-08-21T08:37:07;19.80;99.90
45983;DHT22;31711;47.158;7.346;2022-08-21T08:39:34;19.90;99.90
45983;DHT22;31711;47.158;7.346;2022-08-21T08:42:06;20.10;99.90
45983;DHT22;31711;47.158;7.346;2022-08-21T08:44:33;20.10;99.90
45983;DHT22;31711;47.158;7.346;2022-08-21T08:46:59;20.20;99.90
45983;DHT22;31711;47.158;7.346;2022-08-21T08:49:37;20.20;99.90
45983;DHT22;31711;47.158;7.346;2022-08-21T08:54:43;19.80;99.90
45983;DHT22;31711;47.158;7.346;2022-08-21T08:57:19;20.20;99.90
45983;DHT22;31711;47.158;7.346;2022-08-21T08:59:51;20.30;99.90
45983;DHT22;31711;47.158;7.346;2022-08-21T09:02:18;20.30;99.90
45983;DHT22;31711;47.158;7.346;2022-08-21T09:04:47;20.50;99.90
45983;DHT22;31711;47.158;7.346;2022-08-21T09:07:48;20.50;99.90
45983;DHT22;31711;47.158;7.346;2022-08-21T09:10:21;20.90;99.90
45983;DHT22;31711;47.158;7.346;2022-08-21T09:13:11;21.00;99.90
45983;DHT22;31711;47.158;7.346;2022-08-21T09:15:54;20.90;99.90
45983;DHT22;31711;47.158;7.346;2022-08-21T09:24:00;20.90;99.90
45983;DHT22;31711;47.158;7.346;2022-08-21T09:26:33;21.10;99.90
45983;DHT22;31711;47.158;7.346;2022-08-21T09:29:02;21.30;99.90
45983;DHT22;31711;47.158;7.346;2022-08-21T09:31:32;21.00;99.90
45983;DHT22;31711;47.158;7.346;2022-08-21T09:34:05;21.10;99.90
45983;DHT22;31711;47.158;7.346;2022-08-21T09:39:10;21.40;99.90
45983;DHT22;31711;47.158;7.346;2022-08-21T09:41:38;21.40;99.90
45983;DHT22;31711;47.158;7.346;2022-08-21T09:44:05;21.40;99.90
45983;DHT22;31711;47.158;7.346;2022-08-21T09:46:32;21.60;99.90
45983;DHT22;31711;47.158;7.346;2022-08-21T09:49:00;21.70;99.90
45983;DHT22;31711;47.158;7.346;2022-08-21T09:51:32;21.60;99.90
45983;DHT22;31711;47.158;7.346;2022-08-21T09:56:37;21.80;99.90
45983;DHT22;31711;47.158;7.346;2022-08-21T09:59:30;22.00;99.90
45983;DHT22;31711;47.158;7.346;2022-08-21T10:01:59;22.20;99.90
45983;DHT22;31711;47.158;7.346;2022-08-21T10:04:36;22.30;99.90
45983;DHT22;31711;47.158;7.346;2022-08-21T10:07:10;22.10;99.90
45983;DHT22;31711;47.158;7.346;2022-08-21T10:09:37;22.10;99.90
45983;DHT22;31711;47.158;7.346;2022-08-21T10:12:13;22.00;99.90
45983;DHT22;31711;47.158;7.346;2022-08-21T10:14:47;22.20;99.90
45983;DHT22;31711;47.158;7.346;2022-08-21T10:25:20;22.30;99.90
45983;DHT22;31711;47.158;7.346;2022-08-21T10:28:09;22.40;99.90
45983;DHT22;31711;47.158;7.346;2022-08-21T10:30:51;22.40;99.90
45983;DHT22;31711;47.158;7.346;2022-08-21T10:33:24;22.80;99.90
45983;DHT22;31711;47.158;7.346;2022-08-21T10:36:28;22.50;99.90
45983;DHT22;31711;47.158;7.346;2022-08-21T10:47:36;23.00;99.90
45983;DHT22;31711;47.158;7.346;2022-08-21T10:50:25;23.10;99.90
45983;DHT22;31711;47.158;7.346;2022-08-21T10:56:01;23.30;99.90
45983;DHT22;31711;47.158;7.346;2022-08-21T10:58:37;23.50;99.90
45983;DHT22;31711;47.158;7.346;2022-08-21T11:01:40;23.60;99.90
45983;DHT22;31711;47.158;7.346;2022-08-21T11:04:36;23.20;99.90
45983;DHT22;31711;47.158;7.346;2022-08-21T11:07:58;23.60;99.90
45983;DHT22;31711;47.158;7.346;2022-08-21T11:10:02;23.60;99.90
45983;DHT22;31711;47.158;7.346;2022-08-21T11:12:52;23.50;99.90
45983;DHT22;31711;47.158;7.346;2022-08-21T11:15:52;23.90;99.90
45983;DHT22;31711;47.158;7.346;2022-08-21T11:18:29;24.20;99.90
45983;DHT22;31711;47.158;7.346;2022-08-21T11:23:50;23.50;99.90
45983;DHT22;31711;47.158;7.346;2022-08-21T11:26:43;23.60;99.90
45983;DHT22;31711;47.158;7.346;2022-08-21T11:40:22;24.40;99.90
45983;DHT22;31711;47.158;7.346;2022-08-21T11:47:59;24.90;99.90
45983;DHT22;31711;47.158;7.346;2022-08-21T11:50:29;25.20;99.90
45983;DHT22;31711;47.158;7.346;2022-08-21T11:53:16;25.50;99.90
45983;DHT22;31711;47.158;7.346;2022-08-21T11:55:48;25.80;99.90
45983;DHT22;31711;47.158;7.346;2022-08-21T11:58:22;25.90;99.90
45983;DHT22;31711;47.158;7.346;2022-08-21T12:00:54;25.90;99.90
45983;DHT22;31711;47.158;7.346;2022-08-21T12:03:26;25.30;99.90
45983;DHT22;31711;47.158;7.346;2022-08-21T12:05:56;25.50;99.90
45983;DHT22;31711;47.158;7.346;2022-08-21T12:08:43;25.90;99.90
45983;DHT22;31711;47.158;7.346;2022-08-21T12:16:39;26.20;99.90
45983;DHT22;31711;47.158;7.346;2022-08-21T12:19:35;26.00;99.90
45983;DHT22;31711;47.158;7.346;2022-08-21T12:22:08;26.30;99.90
45983;DHT22;31711;47.158;7.346;2022-08-21T12:24:49;26.20;99.90
45983;DHT22;31711;47.158;7.346;2022-08-21T12:27:46;26.10;99.90
45983;DHT22;31711;47.158;7.346;2022-08-21T12:33:03;26.40;99.90
45983;DHT22;31711;47.158;7.346;2022-08-21T12:35:37;27.00;99.90
45983;DHT22;31711;47.158;7.346;2022-08-21T12:41:04;27.80;99.90
45983;DHT22;31711;47.158;7.346;2022-08-21T12:43:35;28.00;98.90
45983;DHT22;31711;47.158;7.346;2022-08-21T12:46:04;26.90;97.50
45983;DHT22;31711;47.158;7.346;2022-08-21T12:48:35;27.20;99.70
45983;DHT22;31711;47.158;7.346;2022-08-21T12:56:19;27.10;97.70
45983;DHT22;31711;47.158;7.346;2022-08-21T12:58:49;27.60;98.50
45983;DHT22;31711;47.158;7.346;2022-08-21T13:01:45;28.00;99.00
45983;DHT22;31711;47.158;7.346;2022-08-21T13:04:15;28.10;98.30
45983;DHT22;31711;47.158;7.346;2022-08-21T13:06:45;28.40;97.80
45983;DHT22;31711;47.158;7.346;2022-08-21T13:09:14;28.30;97.30
45983;DHT22;31711;47.158;7.346;2022-08-21T13:11:43;28.00;97.30
45983;DHT22;31711;47.158;7.346;2022-08-21T13:14:28;28.40;98.30
45983;DHT22;31711;47.158;7.346;2022-08-21T13:16:55;28.60;97.80
45983;DHT22;31711;47.158;7.346;2022-08-21T13:19:23;28.70;95.80
45983;DHT22;31711;47.158;7.346;2022-08-21T13:21:50;28.80;97.10
45983;DHT22;31711;47.158;7.346;2022-08-21T13:26:48;28.80;95.50
45983;DHT22;31711;47.158;7.346;2022-08-21T13:29:17;28.50;95.30
45983;DHT22;31711;47.158;7.346;2022-08-21T13:31:54;28.50;95.40
45983;DHT22;31711;47.158;7.346;2022-08-21T13:34:23;28.40;95.50
45983;DHT22;31711;47.158;7.346;2022-08-21T13:36:54;28.00;95.70
45983;DHT22;31711;47.158;7.346;2022-08-21T13:39:21;27.60;97.00
45983;DHT22;31711;47.158;7.346;2022-08-21T13:41:50;27.10;97.30
45983;DHT22;31711;47.158;7.346;2022-08-21T13:44:23;27.60;97.80
45983;DHT22;31711;47.158;7.346;2022-08-21T13:46:53;27.90;96.90
45983;DHT22;31711;47.158;7.346;2022-08-21T13:49:29;28.20;97.50
45983;DHT22;31711;47.158;7.346;2022-08-21T13:51:56;27.90;96.30
45983;DHT22;31711;47.158;7.346;2022-08-21T13:56:51;27.70;96.10
45983;DHT22;31711;47.158;7.346;2022-08-21T14:02:15;28.10;95.20
45983;DHT22;31711;47.158;7.346;2022-08-21T14:04:55;27.90;96.10
45983;DHT22;31711;47.158;7.346;2022-08-21T14:07:35;27.70;95.90
45983;DHT22;31711;47.158;7.346;2022-08-21T14:10:08;27.70;96.00
45983;DHT22;31711;47.158;7.346;2022-08-21T14:15:17;27.40;96.00
45983;DHT22;31711;47.158;7.346;2022-08-21T14:17:44;27.70;94.60
45983;DHT22;31711;47.158;7.346;2022-08-21T14:20:32;27.50;95.30
45983;DHT22;31711;47.158;7.346;2022-08-21T14:23:00;27.40;96.10
45983;DHT22;31711;47.158;7.346;2022-08-21T14:25:28;27.30;95.80
45983;DHT22;31711;47.158;7.346;2022-08-21T14:30:41;27.30;95.00
45983;DHT22;31711;47.158;7.346;2022-08-21T14:33:12;26.70;93.70
45983;DHT22;31711;47.158;7.346;2022-08-21T14:35:38;26.80;94.40
45983;DHT22;31711;47.158;7.346;2022-08-21T14:38:19;27.00;94.80
45983;DHT22;31711;47.158;7.346;2022-08-21T14:40:49;27.20;94.50
45983;DHT22;31711;47.158;7.346;2022-08-21T14:43:16;27.70;95.70
45983;DHT22;31711;47.158;7.346;2022-08-21T14:45:43;27.70;94.30
45983;DHT22;31711;47.158;7.346;2022-08-21T14:48:09;27.80;95.30
45983;DHT22;31711;47.158;7.346;2022-08-21T14:50:36;27.90;95.00
45983;DHT22;31711;47.158;7.346;2022-08-21T14:53:02;28.00;96.10
45983;DHT22;31711;47.158;7.346;2022-08-21T14:55:30;28.00;95.30
45983;DHT22;31711;47.158;7.346;2022-08-21T14:58:17;27.60;95.90
45983;DHT22;31711;47.158;7.346;2022-08-21T15:00:42;27.20;95.90
45983;DHT22;31711;47.158;7.346;2022-08-21T15:03:08;27.10;95.50
45983;DHT22;31711;47.158;7.346;2022-08-21T15:05:34;26.70;96.00
45983;DHT22;31711;47.158;7.346;2022-08-21T15:08:01;26.50;96.30
45983;DHT22;31711;47.158;7.346;2022-08-21T15:10:27;26.40;96.40
45983;DHT22;31711;47.158;7.346;2022-08-21T15:12:55;26.30;96.60
45983;DHT22;31711;47.158;7.346;2022-08-21T15:15:21;26.30;96.00
45983;DHT22;31711;47.158;7.346;2022-08-21T15:17:47;26.40;96.00
45983;DHT22;31711;47.158;7.346;2022-08-21T15:20:13;26.60;96.70
45983;DHT22;31711;47.158;7.346;2022-08-21T15:22:39;26.60;96.30
45983;DHT22;31711;47.158;7.346;2022-08-21T15:25:05;26.40;96.70
45983;DHT22;31711;47.158;7.346;2022-08-21T15:27:31;26.20;96.40
45983;DHT22;31711;47.158;7.346;2022-08-21T15:29:58;26.10;96.60
45983;DHT22;31711;47.158;7.346;2022-08-21T15:32:26;26.00;96.60
45983;DHT22;31711;47.158;7.346;2022-08-21T15:34:54;25.90;96.40
45983;DHT22;31711;47.158;7.346;2022-08-21T15:37:23;26.00;96.30
45983;DHT22;31711;47.158;7.346;2022-08-21T15:39:50;26.10;95.90
45983;DHT22;31711;47.158;7.346;2022-08-21T15:42:18;26.20;97.30
45983;DHT22;31711;47.158;7.346;2022-08-21T15:44:44;26.40;97.00
45983;DHT22;31711;47.158;7.346;2022-08-21T15:47:17;26.10;95.70
45983;DHT22;31711;47.158;7.346;2022-08-21T15:49:44;26.00;95.90
45983;DHT22;31711;47.158;7.346;2022-08-21T15:52:15;26.10;96.30
45983;DHT22;31711;47.158;7.346;2022-08-21T15:54:41;26.10;96.50
45983;DHT22;31711;47.158;7.346;2022-08-21T15:57:09;26.10;95.70
45983;DHT22;31711;47.158;7.346;2022-08-21T15:59:43;26.00;95.50
45983;DHT22;31711;47.158;7.346;2022-08-21T16:02:19;26.00;95.20
45983;DHT22;31711;47.158;7.346;2022-08-21T16:04:47;25.90;95.40
45983;DHT22;31711;47.158;7.346;2022-08-21T16:07:13;26.00;96.10
45983;DHT22;31711;47.158;7.346;2022-08-21T16:09:41;25.90;95.00
45983;DHT22;31711;47.158;7.346;2022-08-21T16:12:07;25.60;94.80
45983;DHT22;31711;47.158;7.346;2022-08-21T16:14:36;25.60;95.30
45983;DHT22;31711;47.158;7.346;2022-08-21T16:17:06;25.50;95.30
45983;DHT22;31711;47.158;7.346;2022-08-21T16:19:33;25.50;95.10
45983;DHT22;31711;47.158;7.346;2022-08-21T16:22:00;25.50;95.20
45983;DHT22;31711;47.158;7.346;2022-08-21T16:24:26;25.50;95.30
45983;DHT22;31711;47.158;7.346;2022-08-21T16:26:52;25.60;95.30
45983;DHT22;31711;47.158;7.346;2022-08-21T16:29:19;25.60;95.50
45983;DHT22;31711;47.158;7.346;2022-08-21T16:31:47;25.70;96.10
45983;DHT22;31711;47.158;7.346;2022-08-21T16:34:17;25.70;95.50
45983;DHT22;31711;47.158;7.346;2022-08-21T16:36:43;25.50;95.30
45983;DHT22;31711;47.158;7.346;2022-08-21T16:39:10;25.50;95.40
45983;DHT22;31711;47.158;7.346;2022-08-21T16:41:36;25.60;97.30
45983;DHT22;31711;47.158;7.346;2022-08-21T16:44:04;25.40;96.40
45983;DHT22;31711;47.158;7.346;2022-08-21T16:46:34;25.20;97.20
45983;DHT22;31711;47.158;7.346;2022-08-21T16:49:02;25.20;97.20
45983;DHT22;31711;47.158;7.346;2022-08-21T16:51:28;25.20;97.50
45983;DHT22;31711;47.158;7.346;2022-08-21T16:53:54;25.10;97.80
45983;DHT22;31711;47.158;7.346;2022-08-21T16:56:20;24.90;97.80
45983;DHT22;31711;47.158;7.346;2022-08-21T16:58:47;24.90;98.50
45983;DHT22;31711;47.158;7.346;2022-08-21T17:01:17;24.90;98.30
45983;DHT22;31711;47.158;7.346;2022-08-21T17:03:46;24.80;99.00
45983;DHT22;31711;47.158;7.346;2022-08-21T17:06:13;24.80;99.00
45983;DHT22;31711;47.158;7.346;2022-08-21T17:08:40;24.80;98.50